sensor_id;sensor_type;location;lat;lon;timestamp;P1;durP1;ratioP1;P2;durP2;ratioP2
4021;SDS011;2025;48.260;16.432;2024-01-15T00:00:10;7.47;;;2.72;;
4021;SDS011;2025;48.260;16.432;2024-01-15T00:02:37;12.80;;;3.40;;
4021;SDS011;2025;48.260;16.432;2024-01-15T00:07:31;7.72;;;2.08;;
4021;SDS011;2025;48.260;16.432;2024-01-15T00:12:25;5.88;;;1.92;;
4021;SDS011;2025;48.260;16.432;2024-01-15T00:17:21;9.75;;;2.25;;
4021;SDS011;2025;48.260;16.432;2024-01-15T00:19:48;8.65;;;2.28;;
4021;SDS011;2025;48.260;16.432;2024-01-15T00:24:41;9.55;;;2.47;;
4021;SDS011;2025;48.260;16.432;2024-01-15T00:29:35;7.97;;;2.33;;
4021;SDS011;2025;48.260;16.432;2024-01-15T00:32:04;7.82;;;3.85;;
4021;SDS011;2025;48.260;16.432;2024-01-15T00:34:32;8.63;;;2.55;;
4021;SDS011;2025;48.260;16.432;2024-01-15T00:39:25;8.52;;;1.98;;
4021;SDS011;2025;48.260;16.432;2024-01-15T00:41:52;10.25;;;3.13;;
4021;SDS011;2025;48.260;16.432;2024-01-15T00:46:46;7.05;;;2.28;;
4021;SDS011;2025;48.260;16.432;2024-01-15T00:51:42;9.63;;;3.25;;
4021;SDS011;2025;48.260;16.432;2024-01-15T00:54:09;9.73;;;2.83;;
4021;SDS011;2025;48.260;16.432;2024-01-15T00:59:03;9.52;;;3.33;;
4021;SDS011;2025;48.260;16.432;2024-01-15T01:03:57;7.25;;;2.75;;
4021;SDS011;2025;48.260;16.432;2024-01-15T01:08:52;7.90;;;2.20;;
4021;SDS011;2025;48.260;16.432;2024-01-15T01:13:46;12.95;;;3.67;;
4021;SDS011;2025;48.260;16.432;2024-01-15T01:18:39;8.48;;;2.97;;
4021;SDS011;2025;48.260;16.432;2024-01-15T01:23:35;13.13;;;3.58;;
4021;SDS011;2025;48.260;16.432;2024-01-15T01:26:02;11.50;;;3.63;;
4021;SDS011;2025;48.260;16.432;2024-01-15T01:28:29;9.63;;;3.83;;
4021;SDS011;2025;48.260;16.432;2024-01-15T01:33:22;11.18;;;4.00;;
4021;SDS011;2025;48.260;16.432;2024-01-15T01:38:16;9.35;;;2.72;;
4021;SDS011;2025;48.260;16.432;2024-01-15T01:43:11;10.98;;;3.72;;
4021;SDS011;2025;48.260;16.432;2024-01-15T01:48:05;9.68;;;2.80;;
4021;SDS011;2025;48.260;16.432;2024-01-15T01:50:33;14.98;;;6.53;;
4021;SDS011;2025;48.260;16.432;2024-01-15T01:53:01;9.95;;;4.00;;
4021;SDS011;2025;48.260;16.432;2024-01-15T01:55:29;11.35;;;3.95;;
4021;SDS011;2025;48.260;16.432;2024-01-15T01:58:00;10.70;;;4.28;;
4021;SDS011;2025;48.260;16.432;2024-01-15T02:00:28;13.10;;;4.10;;
4021;SDS011;2025;48.260;16.432;2024-01-15T02:02:56;12.30;;;4.78;;
4021;SDS011;2025;48.260;16.432;2024-01-15T02:07:50;7.70;;;2.75;;
4021;SDS011;2025;48.260;16.432;2024-01-15T02:12:44;11.45;;;3.80;;
4021;SDS011;2025;48.260;16.432;2024-01-15T02:15:15;13.48;;;4.80;;
4021;SDS011;2025;48.260;16.432;2024-01-15T02:20:24;11.77;;;4.60;;
4021;SDS011;2025;48.260;16.432;2024-01-15T02:22:51;12.13;;;4.03;;
4021;SDS011;2025;48.260;16.432;2024-01-15T02:25:20;13.95;;;4.68;;
4021;SDS011;2025;48.260;16.432;2024-01-15T02:27:47;14.85;;;4.47;;
4021;SDS011;2025;48.260;16.432;2024-01-15T02:30:14;15.15;;;4.20;;
4021;SDS011;2025;48.260;16.432;2024-01-15T02:32:43;12.30;;;4.57;;
4021;SDS011;2025;48.260;16.432;2024-01-15T02:37:37;10.38;;;3.83;;
4021;SDS011;2025;48.260;16.432;2024-01-15T02:42:32;9.23;;;3.63;;
4021;SDS011;2025;48.260;16.432;2024-01-15T02:45:00;12.50;;;3.72;;
4021;SDS011;2025;48.260;16.432;2024-01-15T02:47:27;13.82;;;4.32;;
4021;SDS011;2025;48.260;16.432;2024-01-15T02:52:21;11.77;;;3.42;;
4021;SDS011;2025;48.260;16.432;2024-01-15T02:57:15;9.55;;;3.40;;
4021;SDS011;2025;48.260;16.432;2024-01-15T02:59:43;10.70;;;3.72;;
4021;SDS011;2025;48.260;16.432;2024-01-15T03:02:10;9.82;;;3.00;;
4021;SDS011;2025;48.260;16.432;2024-01-15T03:04:37;11.80;;;3.28;;
4021;SDS011;2025;48.260;16.432;2024-01-15T03:07:04;8.48;;;3.20;;
4021;SDS011;2025;48.260;16.432;2024-01-15T03:09:31;13.27;;;5.10;;
4021;SDS011;2025;48.260;16.432;2024-01-15T03:11:58;11.63;;;6.90;;
4021;SDS011;2025;48.260;16.432;2024-01-15T03:14:25;12.07;;;3.47;;
4021;SDS011;2025;48.260;16.432;2024-01-15T03:16:54;10.25;;;2.33;;
4021;SDS011;2025;48.260;16.432;2024-01-15T03:19:21;11.00;;;4.30;;
4021;SDS011;2025;48.260;16.432;2024-01-15T03:21:48;11.13;;;2.90;;
4021;SDS011;2025;48.260;16.432;2024-01-15T03:24:15;12.07;;;5.07;;
4021;SDS011;2025;48.260;16.432;2024-01-15T03:26:42;9.00;;;2.85;;
4021;SDS011;2025;48.260;16.432;2024-01-15T03:29:09;10.30;;;4.72;;
4021;SDS011;2025;48.260;16.432;2024-01-15T03:31:36;9.43;;;3.58;;
4021;SDS011;2025;48.260;16.432;2024-01-15T03:34:04;11.32;;;3.85;;
4021;SDS011;2025;48.260;16.432;2024-01-15T03:36:31;11.07;;;3.75;;
4021;SDS011;2025;48.260;16.432;2024-01-15T03:38:59;11.70;;;5.03;;
4021;SDS011;2025;48.260;16.432;2024-01-15T03:41:26;11.45;;;2.88;;
4021;SDS011;2025;48.260;16.432;2024-01-15T03:43:53;8.93;;;3.55;;
4021;SDS011;2025;48.260;16.432;2024-01-15T03:46:20;12.90;;;5.65;;
4021;SDS011;2025;48.260;16.432;2024-01-15T03:48:47;13.35;;;3.95;;
4021;SDS011;2025;48.260;16.432;2024-01-15T03:51:16;13.10;;;4.53;;
4021;SDS011;2025;48.260;16.432;2024-01-15T03:53:43;11.57;;;4.20;;
4021;SDS011;2025;48.260;16.432;2024-01-15T03:56:11;11.43;;;3.30;;
4021;SDS011;2025;48.260;16.432;2024-01-15T03:58:38;14.57;;;4.72;;
4021;SDS011;2025;48.260;16.432;2024-01-15T04:01:07;13.65;;;4.70;;
4021;SDS011;2025;48.260;16.432;2024-01-15T04:03:35;12.52;;;4.05;;
4021;SDS011;2025;48.260;16.432;2024-01-15T04:06:03;12.55;;;3.70;;
4021;SDS011;2025;48.260;16.432;2024-01-15T04:08:31;11.43;;;3.75;;
4021;SDS011;2025;48.260;16.432;2024-01-15T04:10:59;13.48;;;3.75;;
4021;SDS011;2025;48.260;16.432;2024-01-15T04:13:26;11.20;;;4.93;;
4021;SDS011;2025;48.260;16.432;2024-01-15T04:15:54;13.88;;;4.80;;
4021;SDS011;2025;48.260;16.432;2024-01-15T04:18:21;12.95;;;5.28;;
4021;SDS011;2025;48.260;16.432;2024-01-15T04:20:48;14.88;;;6.22;;
4021;SDS011;2025;48.260;16.432;2024-01-15T04:23:15;14.57;;;5.40;;
4021;SDS011;2025;48.260;16.432;2024-01-15T04:25:43;11.60;;;4.05;;
4021;SDS011;2025;48.260;16.432;2024-01-15T04:28:11;11.75;;;5.20;;
4021;SDS011;2025;48.260;16.432;2024-01-15T04:30:38;16.58;;;5.95;;
4021;SDS011;2025;48.260;16.432;2024-01-15T04:33:05;17.75;;;6.47;;
4021;SDS011;2025;48.260;16.432;2024-01-15T04:35:31;15.98;;;6.85;;
4021;SDS011;2025;48.260;16.432;2024-01-15T04:37:59;10.32;;;4.85;;
4021;SDS011;2025;48.260;16.432;2024-01-15T04:40:26;17.90;;;6.40;;
4021;SDS011;2025;48.260;16.432;2024-01-15T04:42:55;15.73;;;6.43;;
4021;SDS011;2025;48.260;16.432;2024-01-15T04:45:22;15.98;;;6.80;;
4021;SDS011;2025;48.260;16.432;2024-01-15T04:47:53;15.70;;;5.20;;
4021;SDS011;2025;48.260;16.432;2024-01-15T04:50:22;13.70;;;5.57;;
4021;SDS011;2025;48.260;16.432;2024-01-15T04:52:49;18.95;;;8.38;;
4021;SDS011;2025;48.260;16.432;2024-01-15T04:55:16;16.42;;;6.57;;
4021;SDS011;2025;48.260;16.432;2024-01-15T04:57:43;17.80;;;5.88;;
4021;SDS011;2025;48.260;16.432;2024-01-15T05:00:12;15.32;;;5.20;;
4021;SDS011;2025;48.260;16.432;2024-01-15T05:02:40;13.70;;;5.35;;
4021;SDS011;2025;48.260;16.432;2024-01-15T05:05:07;12.40;;;4.32;;
4021;SDS011;2025;48.260;16.432;2024-01-15T05:07:34;15.85;;;7.78;;
4021;SDS011;2025;48.260;16.432;2024-01-15T05:10:01;17.85;;;9.00;;
4021;SDS011;2025;48.260;16.432;2024-01-15T05:12:29;14.30;;;5.85;;
4021;SDS011;2025;48.260;16.432;2024-01-15T05:14:56;17.02;;;9.43;;
4021;SDS011;2025;48.260;16.432;2024-01-15T05:17:24;15.85;;;6.45;;
4021;SDS011;2025;48.260;16.432;2024-01-15T05:19:51;15.75;;;5.78;;
4021;SDS011;2025;48.260;16.432;2024-01-15T05:22:18;20.27;;;8.48;;
4021;SDS011;2025;48.260;16.432;2024-01-15T05:24:46;15.68;;;6.38;;
4021;SDS011;2025;48.260;16.432;2024-01-15T05:27:14;19.00;;;7.45;;
4021;SDS011;2025;48.260;16.432;2024-01-15T05:29:41;18.38;;;7.78;;
4021;SDS011;2025;48.260;16.432;2024-01-15T05:32:08;15.73;;;8.88;;
4021;SDS011;2025;48.260;16.432;2024-01-15T05:34:36;17.35;;;6.75;;
4021;SDS011;2025;48.260;16.432;2024-01-15T05:37:03;17.95;;;8.07;;
4021;SDS011;2025;48.260;16.432;2024-01-15T05:39:30;14.52;;;5.85;;
4021;SDS011;2025;48.260;16.432;2024-01-15T05:41:58;13.38;;;6.25;;
4021;SDS011;2025;48.260;16.432;2024-01-15T05:44:25;14.45;;;5.95;;
4021;SDS011;2025;48.260;16.432;2024-01-15T05:46:53;11.60;;;4.20;;
4021;SDS011;2025;48.260;16.432;2024-01-15T05:49:20;17.63;;;4.50;;
4021;SDS011;2025;48.260;16.432;2024-01-15T05:51:49;13.65;;;4.88;;
4021;SDS011;2025;48.260;16.432;2024-01-15T05:54:17;8.75;;;3.67;;
4021;SDS011;2025;48.260;16.432;2024-01-15T05:56:45;14.07;;;6.43;;
4021;SDS011;2025;48.260;16.432;2024-01-15T05:59:12;15.52;;;5.15;;
4021;SDS011;2025;48.260;16.432;2024-01-15T06:01:39;12.93;;;4.68;;
4021;SDS011;2025;48.260;16.432;2024-01-15T06:04:06;14.23;;;4.43;;
4021;SDS011;2025;48.260;16.432;2024-01-15T06:06:33;12.93;;;4.65;;
4021;SDS011;2025;48.260;16.432;2024-01-15T06:09:01;13.18;;;4.85;;
4021;SDS011;2025;48.260;16.432;2024-01-15T06:11:30;12.93;;;5.68;;
4021;SDS011;2025;48.260;16.432;2024-01-15T06:13:57;13.15;;;5.55;;
4021;SDS011;2025;48.260;16.432;2024-01-15T06:16:25;11.45;;;4.47;;
4021;SDS011;2025;48.260;16.432;2024-01-15T06:18:52;13.35;;;4.78;;
4021;SDS011;2025;48.260;16.432;2024-01-15T06:21:20;12.85;;;4.05;;
4021;SDS011;2025;48.260;16.432;2024-01-15T06:23:47;9.88;;;3.63;;
4021;SDS011;2025;48.260;16.432;2024-01-15T06:26:15;10.32;;;4.03;;
4021;SDS011;2025;48.260;16.432;2024-01-15T06:28:42;12.00;;;4.18;;
4021;SDS011;2025;48.260;16.432;2024-01-15T06:31:09;12.27;;;3.72;;
4021;SDS011;2025;48.260;16.432;2024-01-15T06:33:36;8.55;;;2.60;;
4021;SDS011;2025;48.260;16.432;2024-01-15T06:36:04;9.25;;;4.90;;
4021;SDS011;2025;48.260;16.432;2024-01-15T06:38:31;10.05;;;3.67;;
4021;SDS011;2025;48.260;16.432;2024-01-15T06:40:58;10.07;;;2.83;;
4021;SDS011;2025;48.260;16.432;2024-01-15T06:43:27;7.95;;;2.85;;
4021;SDS011;2025;48.260;16.432;2024-01-15T06:45:54;11.75;;;4.05;;
4021;SDS011;2025;48.260;16.432;2024-01-15T06:48:21;10.13;;;3.47;;
4021;SDS011;2025;48.260;16.432;2024-01-15T06:50:48;10.45;;;2.75;;
4021;SDS011;2025;48.260;16.432;2024-01-15T06:53:15;10.10;;;4.85;;
4021;SDS011;2025;48.260;16.432;2024-01-15T06:55:42;12.05;;;4.22;;
4021;SDS011;2025;48.260;16.432;2024-01-15T06:58:10;12.30;;;4.13;;
4021;SDS011;2025;48.260;16.432;2024-01-15T07:00:38;11.80;;;4.07;;
4021;SDS011;2025;48.260;16.432;2024-01-15T07:03:05;14.05;;;6.47;;
4021;SDS011;2025;48.260;16.432;2024-01-15T07:05:32;16.08;;;6.35;;
4021;SDS011;2025;48.260;16.432;2024-01-15T07:07:59;11.80;;;4.38;;
4021;SDS011;2025;48.260;16.432;2024-01-15T07:10:26;10.55;;;3.63;;
4021;SDS011;2025;48.260;16.432;2024-01-15T07:12:53;10.00;;;4.28;;
4021;SDS011;2025;48.260;16.432;2024-01-15T07:15:20;13.00;;;5.10;;
4021;SDS011;2025;48.260;16.432;2024-01-15T07:17:49;10.43;;;4.40;;
4021;SDS011;2025;48.260;16.432;2024-01-15T07:20:16;9.40;;;4.05;;
4021;SDS011;2025;48.260;16.432;2024-01-15T07:22:44;10.82;;;5.05;;
4021;SDS011;2025;48.260;16.432;2024-01-15T07:25:10;13.23;;;4.60;;
4021;SDS011;2025;48.260;16.432;2024-01-15T07:27:38;13.45;;;8.05;;
4021;SDS011;2025;48.260;16.432;2024-01-15T07:30:08;9.77;;;3.20;;
4021;SDS011;2025;48.260;16.432;2024-01-15T07:32:35;11.23;;;4.18;;
4021;SDS011;2025;48.260;16.432;2024-01-15T07:35:04;9.13;;;4.05;;
4021;SDS011;2025;48.260;16.432;2024-01-15T07:37:31;11.75;;;4.53;;
4021;SDS011;2025;48.260;16.432;2024-01-15T07:39:59;10.23;;;4.05;;
4021;SDS011;2025;48.260;16.432;2024-01-15T07:42:26;7.50;;;3.55;;
4021;SDS011;2025;48.260;16.432;2024-01-15T07:44:53;9.68;;;5.40;;
4021;SDS011;2025;48.260;16.432;2024-01-15T07:47:20;8.57;;;3.63;;
4021;SDS011;2025;48.260;16.432;2024-01-15T07:49:47;6.90;;;2.78;;
4021;SDS011;2025;48.260;16.432;2024-01-15T07:52:15;10.52;;;3.25;;
4021;SDS011;2025;48.260;16.432;2024-01-15T07:54:42;8.13;;;2.95;;
4021;SDS011;2025;48.260;16.432;2024-01-15T07:57:10;8.70;;;2.90;;
4021;SDS011;2025;48.260;16.432;2024-01-15T07:59:37;9.52;;;4.60;;
4021;SDS011;2025;48.260;16.432;2024-01-15T08:02:05;10.52;;;3.55;;
4021;SDS011;2025;48.260;16.432;2024-01-15T08:04:32;10.35;;;3.63;;
4021;SDS011;2025;48.260;16.432;2024-01-15T08:06:59;10.93;;;3.97;;
4021;SDS011;2025;48.260;16.432;2024-01-15T08:09:29;10.93;;;2.80;;
4021;SDS011;2025;48.260;16.432;2024-01-15T08:11:56;10.55;;;3.20;;
4021;SDS011;2025;48.260;16.432;2024-01-15T08:14:23;10.98;;;2.85;;
4021;SDS011;2025;48.260;16.432;2024-01-15T08:16:50;9.60;;;3.70;;
4021;SDS011;2025;48.260;16.432;2024-01-15T08:19:17;8.38;;;3.38;;
4021;SDS011;2025;48.260;16.432;2024-01-15T08:21:56;10.60;;;3.78;;
4021;SDS011;2025;48.260;16.432;2024-01-15T08:24:23;11.30;;;4.68;;
4021;SDS011;2025;48.260;16.432;2024-01-15T08:26:50;12.43;;;4.25;;
4021;SDS011;2025;48.260;16.432;2024-01-15T08:29:17;11.60;;;4.22;;
4021;SDS011;2025;48.260;16.432;2024-01-15T08:31:46;10.73;;;3.95;;
4021;SDS011;2025;48.260;16.432;2024-01-15T08:34:13;8.95;;;3.80;;
4021;SDS011;2025;48.260;16.432;2024-01-15T08:36:40;8.85;;;2.95;;
4021;SDS011;2025;48.260;16.432;2024-01-15T08:39:08;10.30;;;3.08;;
4021;SDS011;2025;48.260;16.432;2024-01-15T08:41:36;9.80;;;2.58;;
4021;SDS011;2025;48.260;16.432;2024-01-15T08:44:03;11.25;;;3.65;;
4021;SDS011;2025;48.260;16.432;2024-01-15T08:46:30;9.95;;;4.00;;
4021;SDS011;2025;48.260;16.432;2024-01-15T08:48:57;10.73;;;5.28;;
4021;SDS011;2025;48.260;16.432;2024-01-15T08:51:24;8.77;;;3.13;;
4021;SDS011;2025;48.260;16.432;2024-01-15T08:53:51;11.27;;;4.25;;
4021;SDS011;2025;48.260;16.432;2024-01-15T08:56:20;9.40;;;3.55;;
4021;SDS011;2025;48.260;16.432;2024-01-15T08:58:47;9.48;;;4.88;;
4021;SDS011;2025;48.260;16.432;2024-01-15T09:01:14;8.00;;;2.40;;
4021;SDS011;2025;48.260;16.432;2024-01-15T09:03:41;11.45;;;4.75;;
4021;SDS011;2025;48.260;16.432;2024-01-15T09:06:08;10.15;;;3.80;;
4021;SDS011;2025;48.260;16.432;2024-01-15T09:08:36;8.35;;;3.15;;
4021;SDS011;2025;48.260;16.432;2024-01-15T09:11:03;9.15;;;3.47;;
4021;SDS011;2025;48.260;16.432;2024-01-15T09:13:32;9.23;;;2.55;;
4021;SDS011;2025;48.260;16.432;2024-01-15T09:15:59;8.80;;;3.45;;
4021;SDS011;2025;48.260;16.432;2024-01-15T09:18:27;8.05;;;2.08;;
4021;SDS011;2025;48.260;16.432;2024-01-15T09:20:54;7.72;;;3.40;;
4021;SDS011;2025;48.260;16.432;2024-01-15T09:23:21;10.43;;;3.67;;
4021;SDS011;2025;48.260;16.432;2024-01-15T09:25:49;10.50;;;4.70;;
4021;SDS011;2025;48.260;16.432;2024-01-15T09:28:17;6.07;;;2.55;;
4021;SDS011;2025;48.260;16.432;2024-01-15T09:30:46;7.05;;;3.28;;
4021;SDS011;2025;48.260;16.432;2024-01-15T09:33:13;8.75;;;3.45;;
4021;SDS011;2025;48.260;16.432;2024-01-15T09:35:40;8.52;;;2.55;;
4021;SDS011;2025;48.260;16.432;2024-01-15T09:38:07;9.13;;;2.50;;
4021;SDS011;2025;48.260;16.432;2024-01-15T09:40:34;7.03;;;2.20;;
4021;SDS011;2025;48.260;16.432;2024-01-15T09:43:05;7.53;;;2.78;;
4021;SDS011;2025;48.260;16.432;2024-01-15T09:45:32;7.05;;;2.67;;
4021;SDS011;2025;48.260;16.432;2024-01-15T09:48:01;7.10;;;2.72;;
4021;SDS011;2025;48.260;16.432;2024-01-15T09:50:28;7.22;;;2.65;;
4021;SDS011;2025;48.260;16.432;2024-01-15T09:53:05;7.47;;;2.58;;
4021;SDS011;2025;48.260;16.432;2024-01-15T09:55:32;7.90;;;2.75;;
4021;SDS011;2025;48.260;16.432;2024-01-15T09:57:59;6.93;;;2.65;;
4021;SDS011;2025;48.260;16.432;2024-01-15T10:00:28;7.10;;;3.22;;
4021;SDS011;2025;48.260;16.432;2024-01-15T10:02:56;7.40;;;3.67;;
4021;SDS011;2025;48.260;16.432;2024-01-15T10:05:26;7.68;;;2.13;;
4021;SDS011;2025;48.260;16.432;2024-01-15T10:07:53;6.00;;;1.92;;
4021;SDS011;2025;48.260;16.432;2024-01-15T10:10:23;7.95;;;2.92;;
4021;SDS011;2025;48.260;16.432;2024-01-15T10:12:50;7.55;;;2.95;;
4021;SDS011;2025;48.260;16.432;2024-01-15T10:15:17;5.35;;;1.35;;
4021;SDS011;2025;48.260;16.432;2024-01-15T10:17:44;7.85;;;3.13;;
4021;SDS011;2025;48.260;16.432;2024-01-15T10:20:11;8.13;;;4.43;;
4021;SDS011;2025;48.260;16.432;2024-01-15T10:22:41;8.90;;;2.95;;
4021;SDS011;2025;48.260;16.432;2024-01-15T10:25:11;8.27;;;2.63;;
4021;SDS011;2025;48.260;16.432;2024-01-15T10:27:39;7.63;;;2.50;;
4021;SDS011;2025;48.260;16.432;2024-01-15T10:30:07;8.52;;;3.33;;
4021;SDS011;2025;48.260;16.432;2024-01-15T10:32:34;7.82;;;2.83;;
4021;SDS011;2025;48.260;16.432;2024-01-15T10:35:01;10.13;;;3.70;;
4021;SDS011;2025;48.260;16.432;2024-01-15T10:37:32;7.75;;;2.13;;
4021;SDS011;2025;48.260;16.432;2024-01-15T10:40:02;9.70;;;3.00;;
4021;SDS011;2025;48.260;16.432;2024-01-15T10:42:31;9.10;;;2.38;;
4021;SDS011;2025;48.260;16.432;2024-01-15T10:44:58;9.80;;;2.50;;
4021;SDS011;2025;48.260;16.432;2024-01-15T10:47:25;8.18;;;3.28;;
4021;SDS011;2025;48.260;16.432;2024-01-15T10:49:53;5.93;;;2.55;;
4021;SDS011;2025;48.260;16.432;2024-01-15T10:52:20;6.60;;;2.10;;
4021;SDS011;2025;48.260;16.432;2024-01-15T10:54:48;5.80;;;2.05;;
4021;SDS011;2025;48.260;16.432;2024-01-15T10:57:17;7.32;;;2.40;;
4021;SDS011;2025;48.260;16.432;2024-01-15T10:59:47;6.22;;;1.85;;
4021;SDS011;2025;48.260;16.432;2024-01-15T11:02:14;8.95;;;2.47;;
4021;SDS011;2025;48.260;16.432;2024-01-15T11:04:41;5.85;;;2.38;;
4021;SDS011;2025;48.260;16.432;2024-01-15T11:07:08;7.10;;;2.50;;
4021;SDS011;2025;48.260;16.432;2024-01-15T11:09:38;8.02;;;2.22;;
4021;SDS011;2025;48.260;16.432;2024-01-15T11:12:09;6.65;;;2.13;;
4021;SDS011;2025;48.260;16.432;2024-01-15T11:14:42;6.43;;;1.73;;
4021;SDS011;2025;48.260;16.432;2024-01-15T11:17:12;5.45;;;1.67;;
4021;SDS011;2025;48.260;16.432;2024-01-15T11:19:42;6.20;;;2.03;;
4021;SDS011;2025;48.260;16.432;2024-01-15T11:22:10;6.63;;;1.95;;
4021;SDS011;2025;48.260;16.432;2024-01-15T11:24:58;9.27;;;2.58;;
4021;SDS011;2025;48.260;16.432;2024-01-15T11:27:39;6.78;;;2.30;;
4021;SDS011;2025;48.260;16.432;2024-01-15T11:30:09;5.30;;;1.60;;
4021;SDS011;2025;48.260;16.432;2024-01-15T11:32:37;6.55;;;2.00;;
4021;SDS011;2025;48.260;16.432;2024-01-15T11:35:06;5.65;;;1.30;;
4021;SDS011;2025;48.260;16.432;2024-01-15T11:40:36;7.13;;;2.20;;
4021;SDS011;2025;48.260;16.432;2024-01-15T11:43:07;5.60;;;1.85;;
4021;SDS011;2025;48.260;16.432;2024-01-15T11:45:37;5.65;;;1.95;;
4021;SDS011;2025;48.260;16.432;2024-01-15T11:48:09;6.22;;;2.17;;
4021;SDS011;2025;48.260;16.432;2024-01-15T11:50:39;5.78;;;2.13;;
4021;SDS011;2025;48.260;16.432;2024-01-15T11:53:10;5.75;;;1.98;;
4021;SDS011;2025;48.260;16.432;2024-01-15T11:55:43;4.95;;;1.17;;
4021;SDS011;2025;48.260;16.432;2024-01-15T11:58:13;4.90;;;1.42;;
4021;SDS011;2025;48.260;16.432;2024-01-15T12:00:44;5.30;;;1.75;;
4021;SDS011;2025;48.260;16.432;2024-01-15T12:03:11;5.03;;;2.33;;
4021;SDS011;2025;48.260;16.432;2024-01-15T12:05:39;3.85;;;1.00;;
4021;SDS011;2025;48.260;16.432;2024-01-15T12:08:07;7.60;;;2.58;;
4021;SDS011;2025;48.260;16.432;2024-01-15T12:10:36;5.07;;;1.20;;
4021;SDS011;2025;48.260;16.432;2024-01-15T12:13:04;5.90;;;1.98;;
4021;SDS011;2025;48.260;16.432;2024-01-15T12:15:36;5.22;;;1.90;;
4021;SDS011;2025;48.260;16.432;2024-01-15T12:18:05;4.80;;;1.30;;
4021;SDS011;2025;48.260;16.432;2024-01-15T12:20:33;5.32;;;1.85;;
4021;SDS011;2025;48.260;16.432;2024-01-15T12:23:01;7.45;;;1.98;;
4021;SDS011;2025;48.260;16.432;2024-01-15T12:25:28;5.80;;;1.83;;
4021;SDS011;2025;48.260;16.432;2024-01-15T12:27:56;8.52;;;1.77;;
4021;SDS011;2025;48.260;16.432;2024-01-15T12:30:25;4.07;;;1.13;;
4021;SDS011;2025;48.260;16.432;2024-01-15T12:32:53;4.93;;;1.70;;
4021;SDS011;2025;48.260;16.432;2024-01-15T12:35:23;5.97;;;1.63;;
4021;SDS011;2025;48.260;16.432;2024-01-15T12:37:51;7.10;;;2.05;;
4021;SDS011;2025;48.260;16.432;2024-01-15T12:40:18;5.18;;;2.05;;
4021;SDS011;2025;48.260;16.432;2024-01-15T12:42:46;5.05;;;1.50;;
4021;SDS011;2025;48.260;16.432;2024-01-15T12:45:13;6.60;;;2.00;;
4021;SDS011;2025;48.260;16.432;2024-01-15T12:47:40;6.43;;;1.92;;
4021;SDS011;2025;48.260;16.432;2024-01-15T12:50:08;6.63;;;2.22;;
4021;SDS011;2025;48.260;16.432;2024-01-15T12:52:39;6.35;;;2.67;;
4021;SDS011;2025;48.260;16.432;2024-01-15T12:55:07;7.70;;;2.42;;
4021;SDS011;2025;48.260;16.432;2024-01-15T12:57:35;7.68;;;1.67;;
4021;SDS011;2025;48.260;16.432;2024-01-15T13:00:03;6.82;;;2.60;;
4021;SDS011;2025;48.260;16.432;2024-01-15T13:02:32;7.75;;;2.13;;
4021;SDS011;2025;48.260;16.432;2024-01-15T13:05:00;6.97;;;2.80;;
4021;SDS011;2025;48.260;16.432;2024-01-15T13:07:29;6.00;;;1.90;;
4021;SDS011;2025;48.260;16.432;2024-01-15T13:09:57;5.60;;;2.22;;
4021;SDS011;2025;48.260;16.432;2024-01-15T13:12:24;5.90;;;2.40;;
4021;SDS011;2025;48.260;16.432;2024-01-15T13:14:51;6.13;;;2.00;;
4021;SDS011;2025;48.260;16.432;2024-01-15T13:17:18;5.97;;;1.80;;
4021;SDS011;2025;48.260;16.432;2024-01-15T13:19:46;6.97;;;2.30;;
4021;SDS011;2025;48.260;16.432;2024-01-15T13:22:13;6.03;;;2.10;;
4021;SDS011;2025;48.260;16.432;2024-01-15T13:24:41;5.43;;;1.83;;
4021;SDS011;2025;48.260;16.432;2024-01-15T13:27:10;6.43;;;2.90;;
4021;SDS011;2025;48.260;16.432;2024-01-15T13:29:37;5.82;;;1.35;;
4021;SDS011;2025;48.260;16.432;2024-01-15T13:32:04;6.50;;;1.48;;
4021;SDS011;2025;48.260;16.432;2024-01-15T13:34:32;4.10;;;1.70;;
4021;SDS011;2025;48.260;16.432;2024-01-15T13:37:00;4.97;;;1.88;;
4021;SDS011;2025;48.260;16.432;2024-01-15T13:39:27;6.22;;;1.70;;
4021;SDS011;2025;48.260;16.432;2024-01-15T13:41:58;3.97;;;1.45;;
4021;SDS011;2025;48.260;16.432;2024-01-15T13:44:27;8.85;;;1.98;;
4021;SDS011;2025;48.260;16.432;2024-01-15T13:46:54;3.72;;;1.52;;
4021;SDS011;2025;48.260;16.432;2024-01-15T13:49:22;4.43;;;1.23;;
4021;SDS011;2025;48.260;16.432;2024-01-15T13:51:50;5.35;;;1.70;;
4021;SDS011;2025;48.260;16.432;2024-01-15T13:54:17;5.28;;;1.50;;
4021;SDS011;2025;48.260;16.432;2024-01-15T13:56:46;5.82;;;2.05;;
4021;SDS011;2025;48.260;16.432;2024-01-15T13:59:15;5.38;;;1.17;;
4021;SDS011;2025;48.260;16.432;2024-01-15T14:01:43;4.43;;;1.23;;
4021;SDS011;2025;48.260;16.432;2024-01-15T14:04:12;5.10;;;1.40;;
4021;SDS011;2025;48.260;16.432;2024-01-15T14:06:39;6.20;;;1.33;;
4021;SDS011;2025;48.260;16.432;2024-01-15T14:09:06;4.95;;;1.40;;
4021;SDS011;2025;48.260;16.432;2024-01-15T14:11:35;5.30;;;1.92;;
4021;SDS011;2025;48.260;16.432;2024-01-15T14:14:03;5.43;;;1.52;;
4021;SDS011;2025;48.260;16.432;2024-01-15T14:16:30;5.32;;;1.25;;
4021;SDS011;2025;48.260;16.432;2024-01-15T14:18:58;4.60;;;1.98;;
4021;SDS011;2025;48.260;16.432;2024-01-15T14:21:27;4.68;;;1.50;;
4021;SDS011;2025;48.260;16.432;2024-01-15T14:23:54;5.38;;;1.35;;
4021;SDS011;2025;48.260;16.432;2024-01-15T14:26:21;4.50;;;1.50;;
4021;SDS011;2025;48.260;16.432;2024-01-15T14:28:48;4.47;;;1.70;;
4021;SDS011;2025;48.260;16.432;2024-01-15T14:31:15;6.00;;;1.60;;
4021;SDS011;2025;48.260;16.432;2024-01-15T14:33:42;6.22;;;1.67;;
4021;SDS011;2025;48.260;16.432;2024-01-15T14:36:11;4.90;;;1.65;;
4021;SDS011;2025;48.260;16.432;2024-01-15T14:38:38;4.60;;;1.65;;
4021;SDS011;2025;48.260;16.432;2024-01-15T14:41:05;6.28;;;1.92;;
4021;SDS011;2025;48.260;16.432;2024-01-15T14:43:32;6.47;;;1.65;;
4021;SDS011;2025;48.260;16.432;2024-01-15T14:45:59;6.47;;;1.50;;
4021;SDS011;2025;48.260;16.432;2024-01-15T14:48:26;4.75;;;1.50;;
4021;SDS011;2025;48.260;16.432;2024-01-15T14:50:54;5.00;;;1.40;;
4021;SDS011;2025;48.260;16.432;2024-01-15T14:53:23;5.05;;;1.38;;
4021;SDS011;2025;48.260;16.432;2024-01-15T14:55:50;5.25;;;2.15;;
4021;SDS011;2025;48.260;16.432;2024-01-15T14:58:19;4.72;;;2.03;;
4021;SDS011;2025;48.260;16.432;2024-01-15T15:00:46;4.93;;;1.30;;
4021;SDS011;2025;48.260;16.432;2024-01-15T15:03:14;3.92;;;1.30;;
4021;SDS011;2025;48.260;16.432;2024-01-15T15:05:41;4.47;;;1.63;;
4021;SDS011;2025;48.260;16.432;2024-01-15T15:08:08;4.80;;;1.38;;
4021;SDS011;2025;48.260;16.432;2024-01-15T15:10:38;4.43;;;1.52;;
4021;SDS011;2025;48.260;16.432;2024-01-15T15:13:05;3.95;;;1.08;;
4021;SDS011;2025;48.260;16.432;2024-01-15T15:15:33;5.13;;;1.15;;
4021;SDS011;2025;48.260;16.432;2024-01-15T15:18:00;4.68;;;1.58;;
4021;SDS011;2025;48.260;16.432;2024-01-15T15:20:27;5.47;;;1.88;;
4021;SDS011;2025;48.260;16.432;2024-01-15T15:22:54;4.35;;;1.27;;
4021;SDS011;2025;48.260;16.432;2024-01-15T15:25:22;5.05;;;0.82;;
4021;SDS011;2025;48.260;16.432;2024-01-15T15:27:50;6.40;;;1.85;;
4021;SDS011;2025;48.260;16.432;2024-01-15T15:30:17;3.50;;;0.90;;
4021;SDS011;2025;48.260;16.432;2024-01-15T15:32:44;2.95;;;0.65;;
4021;SDS011;2025;48.260;16.432;2024-01-15T15:35:11;4.43;;;1.15;;
4021;SDS011;2025;48.260;16.432;2024-01-15T15:37:38;3.63;;;1.17;;
4021;SDS011;2025;48.260;16.432;2024-01-15T15:40:06;4.82;;;1.65;;
4021;SDS011;2025;48.260;16.432;2024-01-15T15:42:36;4.50;;;1.33;;
4021;SDS011;2025;48.260;16.432;2024-01-15T15:45:05;6.80;;;1.27;;
4021;SDS011;2025;48.260;16.432;2024-01-15T15:47:32;4.40;;;0.90;;
4021;SDS011;2025;48.260;16.432;2024-01-15T15:49:59;4.72;;;1.77;;
4021;SDS011;2025;48.260;16.432;2024-01-15T15:52:27;3.05;;;0.60;;
4021;SDS011;2025;48.260;16.432;2024-01-15T15:54:54;6.05;;;1.42;;
4021;SDS011;2025;48.260;16.432;2024-01-15T15:57:21;4.22;;;1.00;;
4021;SDS011;2025;48.260;16.432;2024-01-15T15:59:51;3.75;;;1.55;;
4021;SDS011;2025;48.260;16.432;2024-01-15T16:02:20;3.88;;;0.73;;